Pagrindinis puslapis
METAR-TAF:

METAR-TAF

Oro uostai :

Kalėdų sala, Australija

platuma: 10-26S, ilguma: 105-41E, Aukštis: 279 m

Dabartinis oras

Ataskaita buvo paskelbta 6 minutes, ne 13:30 UTC
Vėjas 10 kt iš Pietryčių
Temperatūra 24°C
Drėgmė 89%
Slėgis 1014 hPa
Matomumas 10 km arba daugiau
Su prošvaistėmis ne aukštis 900 ft
Apsiniaukę ne aukštis 1600 ft

METAR: YPXM 151330Z AUTO 13010KT 9999 // BKN009 OVC016 24/22 Q1014

Laikas: 20:36 (13:36 UTC)

Prognozė

Ataskaita buvo paskelbta 2 valandos ir 20 minutes, ne 11:16 UTC
Prognozė galioja nuo 15 metu 12 UTC su 16 metu 12 UTC
Vėjas 14 kt iš Rytų/Pietryčių
Matomumas 10 km arba daugiau
Su prošvaistėmis ne aukštis 600 ft
Nuo 16 metu 0000 UTC
Vėjas 14 kt iš Pietryčių
Matomumas 10 km arba daugiau
Su prošvaistėmis ne aukštis 1300 ft

TAF: YPXM 151116Z 1512/1612 12014KT 9999 BKN006 FM160000 13014KT 9999 BKN013

Orai ataskaitas ir orų prognozės (METAR, TAF).

turimą stotys yra geltonos ir raudonos taškus žemėlapyje.

Perkelti pele per norėdami pamatyti stoties vardą.

Tada spustelėkite, norėdami matyti oro stebėjimo ir prognozės.

Norėdami pakeisti žemėlapį: spustelėkite ant žalios mygtukų su juodo kryžiaus žemyn,; žalią mygtuką su brūkšneliu, jei norite nutolinti; arba žalių rodyklių gretimoms žemėlapius.


METAR-TAF: